San Marcos Municipal Airport
KHYI : now visible

Airfield :











YOU CAN JOIN US ON...

 
LOGIN :

Register | Disclaimer

   EN    FR    IT 

 









Legend :    VFR   Marginal VFR   IFR   Intensive IFR   Very Intensive IFR
Visi :
Ceiling :
>= 8 km
>= 3000ft
5 to 8 km
1000 to 3000 ft
1500m to 5 km
500 to 1000 ft
800 to 1500m
200 to 500 ft
< 800m
< 200 ft
Symbols :   Thunderstorms  Fog  Heavy snow  Heavy precipitations  Wind > 20 kt






- Airport Elevation : 597 ft


KHYI - San Marcos Municipal

CURRENT METAR :
  • 230156Z AUTO 07006KT 5SM BR OVC014 17/17 A2997 RMK AO2 SLP142 T01670167

EXPIRED METARs :
  • 230132Z 04005KT 6SM BR OVC014 17/17 A2997 RMK AO2
  • 230119Z 05005KT 4SM BR OVC016 17/17 A2996 RMK AO2
  • 230056Z 08004KT 2SM BR BKN016 OVC024 17/17 A2996 RMK AO2 SLP139 T01670167
  • 222356Z 09004KT 2SM BR BKN016 OVC022 18/15 A2997 RMK AO2 SLP142 T01780150 10194 20156 58000
  • 222316Z 15008KT 2SM BR OVC026 18/15 A2996 RMK AO2

TAF N/A
KZHU FIR / North America



MET'MAP, your aeronautical weather chart ! - Copyright ORBIFLY December 2007 - Disclaimer

ORBIFLY MET'MAP TEAM :

Programming & Development : Alexandra Zaïnal
Concept & original design : Baudouin d'Aumeries
Assistance for programming : Marc-Olivier Méhu
Technical & hardware support : Manuel Goepfert

Contact : metmap@orbifly.com




SOURCES & CREDITS :

   NOAA       Earth
Advisory